sensor_id;sensor_type;location;lat;lon;timestamp;P1;durP1;ratioP1;P2;durP2;ratioP2
22270;SDS011;11304;53.520;10.104;2023-04-04T00:00:17;5.93;;;1.50;;
22270;SDS011;11304;53.520;10.104;2023-04-04T00:02:43;3.90;;;1.35;;
22270;SDS011;11304;53.520;10.104;2023-04-04T00:05:10;4.72;;;1.35;;
22270;SDS011;11304;53.520;10.104;2023-04-04T00:07:36;2.63;;;1.27;;
22270;SDS011;11304;53.520;10.104;2023-04-04T00:10:02;4.07;;;1.67;;
22270;SDS011;11304;53.520;10.104;2023-04-04T00:12:28;5.70;;;1.48;;
22270;SDS011;11304;53.520;10.104;2023-04-04T00:14:54;3.22;;;1.50;;
22270;SDS011;11304;53.520;10.104;2023-04-04T00:17:21;6.60;;;1.50;;
22270;SDS011;11304;53.520;10.104;2023-04-04T00:19:47;3.88;;;1.58;;
22270;SDS011;11304;53.520;10.104;2023-04-04T00:22:13;3.42;;;1.20;;
22270;SDS011;11304;53.520;10.104;2023-04-04T00:24:39;4.80;;;1.40;;
22270;SDS011;11304;53.520;10.104;2023-04-04T00:27:06;3.20;;;1.33;;
22270;SDS011;11304;53.520;10.104;2023-04-04T00:29:32;4.60;;;1.27;;
22270;SDS011;11304;53.520;10.104;2023-04-04T00:31:58;7.97;;;1.58;;
22270;SDS011;11304;53.520;10.104;2023-04-04T00:34:25;3.88;;;1.50;;
22270;SDS011;11304;53.520;10.104;2023-04-04T00:36:51;5.00;;;1.40;;
22270;SDS011;11304;53.520;10.104;2023-04-04T00:39:17;2.97;;;1.15;;
22270;SDS011;11304;53.520;10.104;2023-04-04T00:41:44;5.22;;;1.30;;
22270;SDS011;11304;53.520;10.104;2023-04-04T00:44:10;3.83;;;1.80;;
22270;SDS011;11304;53.520;10.104;2023-04-04T00:46:36;2.53;;;1.50;;
22270;SDS011;11304;53.520;10.104;2023-04-04T00:49:02;3.45;;;1.27;;
22270;SDS011;11304;53.520;10.104;2023-04-04T00:51:28;7.80;;;1.85;;
22270;SDS011;11304;53.520;10.104;2023-04-04T00:53:55;4.82;;;1.50;;
22270;SDS011;11304;53.520;10.104;2023-04-04T00:56:21;3.38;;;1.35;;
22270;SDS011;11304;53.520;10.104;2023-04-04T00:58:47;3.75;;;1.50;;
22270;SDS011;11304;53.520;10.104;2023-04-04T01:01:14;5.05;;;1.55;;
22270;SDS011;11304;53.520;10.104;2023-04-04T01:03:40;3.70;;;1.38;;
22270;SDS011;11304;53.520;10.104;2023-04-04T01:06:07;2.83;;;1.20;;
22270;SDS011;11304;53.520;10.104;2023-04-04T01:08:35;2.85;;;1.20;;
22270;SDS011;11304;53.520;10.104;2023-04-04T01:13:28;3.83;;;1.50;;
22270;SDS011;11304;53.520;10.104;2023-04-04T01:15:54;3.75;;;1.45;;
22270;SDS011;11304;53.520;10.104;2023-04-04T01:18:20;4.30;;;1.33;;
22270;SDS011;11304;53.520;10.104;2023-04-04T01:20:57;4.53;;;1.38;;
22270;SDS011;11304;53.520;10.104;2023-04-04T01:23:29;5.20;;;1.83;;
22270;SDS011;11304;53.520;10.104;2023-04-04T01:26:03;3.45;;;1.27;;
22270;SDS011;11304;53.520;10.104;2023-04-04T01:28:30;3.88;;;1.67;;
22270;SDS011;11304;53.520;10.104;2023-04-04T01:30:57;3.20;;;1.50;;
22270;SDS011;11304;53.520;10.104;2023-04-04T01:33:24;8.23;;;1.85;;
22270;SDS011;11304;53.520;10.104;2023-04-04T01:41:06;5.30;;;2.10;;
22270;SDS011;11304;53.520;10.104;2023-04-04T01:43:32;5.13;;;1.93;;
22270;SDS011;11304;53.520;10.104;2023-04-04T01:45:58;4.82;;;1.58;;
22270;SDS011;11304;53.520;10.104;2023-04-04T01:48:25;4.03;;;1.45;;
22270;SDS011;11304;53.520;10.104;2023-04-04T01:50:52;5.90;;;1.70;;
22270;SDS011;11304;53.520;10.104;2023-04-04T01:53:18;6.47;;;1.52;;
22270;SDS011;11304;53.520;10.104;2023-04-04T01:55:44;5.20;;;1.85;;
22270;SDS011;11304;53.520;10.104;2023-04-04T01:58:10;3.10;;;1.33;;
22270;SDS011;11304;53.520;10.104;2023-04-04T02:00:36;3.78;;;1.40;;
22270;SDS011;11304;53.520;10.104;2023-04-04T02:03:02;5.63;;;1.63;;
22270;SDS011;11304;53.520;10.104;2023-04-04T02:05:29;3.97;;;1.33;;
22270;SDS011;11304;53.520;10.104;2023-04-04T02:07:55;4.82;;;1.67;;
22270;SDS011;11304;53.520;10.104;2023-04-04T02:10:21;2.92;;;1.27;;
22270;SDS011;11304;53.520;10.104;2023-04-04T02:12:48;4.88;;;1.85;;
22270;SDS011;11304;53.520;10.104;2023-04-04T02:15:14;5.30;;;1.60;;
22270;SDS011;11304;53.520;10.104;2023-04-04T02:17:40;2.55;;;1.33;;
22270;SDS011;11304;53.520;10.104;2023-04-04T02:20:09;4.47;;;1.50;;
22270;SDS011;11304;53.520;10.104;2023-04-04T02:22:35;6.25;;;1.88;;
22270;SDS011;11304;53.520;10.104;2023-04-04T02:25:01;4.10;;;1.92;;
22270;SDS011;11304;53.520;10.104;2023-04-04T02:27:29;6.00;;;1.50;;
22270;SDS011;11304;53.520;10.104;2023-04-04T02:29:55;6.32;;;1.88;;
22270;SDS011;11304;53.520;10.104;2023-04-04T02:32:22;4.60;;;1.40;;
22270;SDS011;11304;53.520;10.104;2023-04-04T02:34:48;3.42;;;1.83;;
22270;SDS011;11304;53.520;10.104;2023-04-04T02:37:15;3.72;;;1.67;;
22270;SDS011;11304;53.520;10.104;2023-04-04T02:39:41;5.93;;;1.70;;
22270;SDS011;11304;53.520;10.104;2023-04-04T02:42:07;3.67;;;1.65;;
22270;SDS011;11304;53.520;10.104;2023-04-04T02:44:34;4.82;;;1.63;;
22270;SDS011;11304;53.520;10.104;2023-04-04T02:47:00;6.82;;;1.95;;
22270;SDS011;11304;53.520;10.104;2023-04-04T02:49:26;4.18;;;1.80;;
22270;SDS011;11304;53.520;10.104;2023-04-04T02:51:53;5.25;;;1.60;;
22270;SDS011;11304;53.520;10.104;2023-04-04T02:54:19;4.00;;;1.90;;
22270;SDS011;11304;53.520;10.104;2023-04-04T02:56:45;4.68;;;1.42;;
22270;SDS011;11304;53.520;10.104;2023-04-04T02:59:11;2.58;;;1.33;;
22270;SDS011;11304;53.520;10.104;2023-04-04T03:01:39;2.63;;;1.52;;
22270;SDS011;11304;53.520;10.104;2023-04-04T03:04:06;4.32;;;1.83;;
22270;SDS011;11304;53.520;10.104;2023-04-04T03:06:32;6.20;;;1.70;;
22270;SDS011;11304;53.520;10.104;2023-04-04T03:08:58;7.45;;;1.95;;
22270;SDS011;11304;53.520;10.104;2023-04-04T03:11:25;3.17;;;1.52;;
22270;SDS011;11304;53.520;10.104;2023-04-04T03:13:51;6.28;;;1.73;;
22270;SDS011;11304;53.520;10.104;2023-04-04T03:16:18;6.95;;;2.10;;
22270;SDS011;11304;53.520;10.104;2023-04-04T03:18:45;3.03;;;1.60;;
22270;SDS011;11304;53.520;10.104;2023-04-04T03:21:11;7.47;;;1.73;;
22270;SDS011;11304;53.520;10.104;2023-04-04T03:23:37;4.25;;;1.80;;
22270;SDS011;11304;53.520;10.104;2023-04-04T03:26:03;5.13;;;2.20;;
22270;SDS011;11304;53.520;10.104;2023-04-04T03:28:29;5.18;;;1.90;;
22270;SDS011;11304;53.520;10.104;2023-04-04T03:30:55;6.13;;;1.75;;
22270;SDS011;11304;53.520;10.104;2023-04-04T03:33:21;5.60;;;1.80;;
22270;SDS011;11304;53.520;10.104;2023-04-04T03:35:48;6.60;;;1.70;;
22270;SDS011;11304;53.520;10.104;2023-04-04T03:38:14;5.43;;;1.65;;
22270;SDS011;11304;53.520;10.104;2023-04-04T03:40:40;3.40;;;1.65;;
22270;SDS011;11304;53.520;10.104;2023-04-04T03:43:07;6.13;;;1.67;;
22270;SDS011;11304;53.520;10.104;2023-04-04T03:45:33;7.93;;;2.60;;
22270;SDS011;11304;53.520;10.104;2023-04-04T03:48:00;3.95;;;1.73;;
22270;SDS011;11304;53.520;10.104;2023-04-04T03:50:26;7.28;;;2.20;;
22270;SDS011;11304;53.520;10.104;2023-04-04T03:52:52;12.05;;;2.30;;
22270;SDS011;11304;53.520;10.104;2023-04-04T03:55:18;7.22;;;1.83;;
22270;SDS011;11304;53.520;10.104;2023-04-04T03:57:44;9.85;;;2.33;;
22270;SDS011;11304;53.520;10.104;2023-04-04T04:00:11;13.77;;;2.30;;
22270;SDS011;11304;53.520;10.104;2023-04-04T04:02:37;7.85;;;1.88;;
22270;SDS011;11304;53.520;10.104;2023-04-04T04:05:04;5.50;;;1.80;;
22270;SDS011;11304;53.520;10.104;2023-04-04T04:07:30;7.95;;;1.90;;
22270;SDS011;11304;53.520;10.104;2023-04-04T04:09:56;9.23;;;2.75;;
22270;SDS011;11304;53.520;10.104;2023-04-04T04:12:22;5.80;;;2.40;;
22270;SDS011;11304;53.520;10.104;2023-04-04T04:14:50;8.35;;;2.30;;
22270;SDS011;11304;53.520;10.104;2023-04-04T04:17:16;6.43;;;2.25;;
22270;SDS011;11304;53.520;10.104;2023-04-04T04:19:42;7.32;;;1.95;;
22270;SDS011;11304;53.520;10.104;2023-04-04T04:22:08;6.93;;;2.40;;
22270;SDS011;11304;53.520;10.104;2023-04-04T04:24:35;5.40;;;1.90;;
22270;SDS011;11304;53.520;10.104;2023-04-04T04:27:01;10.60;;;2.80;;
22270;SDS011;11304;53.520;10.104;2023-04-04T04:29:27;11.57;;;2.50;;
22270;SDS011;11304;53.520;10.104;2023-04-04T04:31:53;7.15;;;2.50;;
22270;SDS011;11304;53.520;10.104;2023-04-04T04:34:19;8.85;;;2.50;;
22270;SDS011;11304;53.520;10.104;2023-04-04T04:36:45;7.57;;;2.40;;
22270;SDS011;11304;53.520;10.104;2023-04-04T04:39:12;8.32;;;2.63;;
22270;SDS011;11304;53.520;10.104;2023-04-04T04:41:38;15.30;;;3.03;;
22270;SDS011;11304;53.520;10.104;2023-04-04T04:44:04;12.10;;;2.80;;
22270;SDS011;11304;53.520;10.104;2023-04-04T04:46:30;10.65;;;2.92;;
22270;SDS011;11304;53.520;10.104;2023-04-04T04:48:56;13.75;;;2.53;;
22270;SDS011;11304;53.520;10.104;2023-04-04T04:51:22;7.03;;;2.50;;
22270;SDS011;11304;53.520;10.104;2023-04-04T04:53:49;13.52;;;3.30;;
22270;SDS011;11304;53.520;10.104;2023-04-04T04:56:15;7.63;;;2.20;;
22270;SDS011;11304;53.520;10.104;2023-04-04T04:58:41;7.80;;;2.45;;
22270;SDS011;11304;53.520;10.104;2023-04-04T05:01:09;15.37;;;2.87;;
22270;SDS011;11304;53.520;10.104;2023-04-04T05:03:35;13.23;;;3.00;;
22270;SDS011;11304;53.520;10.104;2023-04-04T05:06:02;7.13;;;2.35;;
22270;SDS011;11304;53.520;10.104;2023-04-04T05:08:28;6.60;;;2.28;;
22270;SDS011;11304;53.520;10.104;2023-04-04T05:10:54;6.13;;;2.47;;
22270;SDS011;11304;53.520;10.104;2023-04-04T05:13:20;7.22;;;2.35;;
22270;SDS011;11304;53.520;10.104;2023-04-04T05:15:46;3.80;;;1.98;;
22270;SDS011;11304;53.520;10.104;2023-04-04T05:18:12;5.95;;;2.13;;
22270;SDS011;11304;53.520;10.104;2023-04-04T05:20:38;11.98;;;2.80;;
22270;SDS011;11304;53.520;10.104;2023-04-04T05:23:05;10.30;;;2.47;;
22270;SDS011;11304;53.520;10.104;2023-04-04T05:25:31;12.05;;;2.53;;
22270;SDS011;11304;53.520;10.104;2023-04-04T05:27:57;9.82;;;3.05;;
22270;SDS011;11304;53.520;10.104;2023-04-04T05:30:24;7.63;;;2.85;;
22270;SDS011;11304;53.520;10.104;2023-04-04T05:32:50;9.68;;;3.15;;
22270;SDS011;11304;53.520;10.104;2023-04-04T05:35:16;7.22;;;2.65;;
22270;SDS011;11304;53.520;10.104;2023-04-04T05:37:42;10.27;;;2.38;;
22270;SDS011;11304;53.520;10.104;2023-04-04T05:40:09;8.88;;;2.50;;
22270;SDS011;11304;53.520;10.104;2023-04-04T05:42:35;6.32;;;2.13;;
22270;SDS011;11304;53.520;10.104;2023-04-04T05:45:01;11.07;;;2.38;;
22270;SDS011;11304;53.520;10.104;2023-04-04T05:47:27;7.57;;;2.28;;
22270;SDS011;11304;53.520;10.104;2023-04-04T05:49:53;7.85;;;2.53;;
22270;SDS011;11304;53.520;10.104;2023-04-04T05:52:20;10.55;;;2.55;;
22270;SDS011;11304;53.520;10.104;2023-04-04T05:54:46;15.10;;;2.90;;
22270;SDS011;11304;53.520;10.104;2023-04-04T05:57:12;13.57;;;2.33;;
22270;SDS011;11304;53.520;10.104;2023-04-04T05:59:38;8.25;;;2.28;;
22270;SDS011;11304;53.520;10.104;2023-04-04T06:02:04;8.23;;;2.17;;
22270;SDS011;11304;53.520;10.104;2023-04-04T06:04:31;6.13;;;1.75;;
22270;SDS011;11304;53.520;10.104;2023-04-04T06:06:57;6.10;;;1.67;;
22270;SDS011;11304;53.520;10.104;2023-04-04T06:09:24;8.90;;;2.30;;
22270;SDS011;11304;53.520;10.104;2023-04-04T06:11:51;3.90;;;1.90;;
22270;SDS011;11304;53.520;10.104;2023-04-04T06:14:17;6.35;;;1.65;;
22270;SDS011;11304;53.520;10.104;2023-04-04T06:16:43;6.13;;;1.75;;
22270;SDS011;11304;53.520;10.104;2023-04-04T06:19:11;8.25;;;2.20;;
22270;SDS011;11304;53.520;10.104;2023-04-04T06:21:37;13.13;;;2.20;;
22270;SDS011;11304;53.520;10.104;2023-04-04T06:24:04;12.05;;;1.85;;
22270;SDS011;11304;53.520;10.104;2023-04-04T06:26:30;7.03;;;2.03;;
22270;SDS011;11304;53.520;10.104;2023-04-04T06:28:56;4.18;;;1.80;;
22270;SDS011;11304;53.520;10.104;2023-04-04T06:31:22;6.32;;;2.17;;
22270;SDS011;11304;53.520;10.104;2023-04-04T06:38:40;6.20;;;1.73;;
22270;SDS011;11304;53.520;10.104;2023-04-04T06:41:06;4.22;;;1.52;;
22270;SDS011;11304;53.520;10.104;2023-04-04T06:43:32;7.93;;;2.00;;
22270;SDS011;11304;53.520;10.104;2023-04-04T06:45:59;5.00;;;1.67;;
22270;SDS011;11304;53.520;10.104;2023-04-04T06:48:25;5.00;;;1.63;;
22270;SDS011;11304;53.520;10.104;2023-04-04T06:50:51;2.70;;;1.60;;
22270;SDS011;11304;53.520;10.104;2023-04-04T06:53:17;6.03;;;2.20;;
22270;SDS011;11304;53.520;10.104;2023-04-04T06:55:43;6.72;;;2.10;;
22270;SDS011;11304;53.520;10.104;2023-04-04T06:58:09;5.63;;;2.03;;
22270;SDS011;11304;53.520;10.104;2023-04-04T07:00:36;4.72;;;2.30;;
22270;SDS011;11304;53.520;10.104;2023-04-04T07:03:02;6.75;;;2.08;;
22270;SDS011;11304;53.520;10.104;2023-04-04T07:05:28;5.63;;;2.33;;
22270;SDS011;11304;53.520;10.104;2023-04-04T07:07:56;8.02;;;2.33;;
22270;SDS011;11304;53.520;10.104;2023-04-04T07:10:22;6.50;;;2.05;;
22270;SDS011;11304;53.520;10.104;2023-04-04T07:12:49;5.88;;;2.50;;
22270;SDS011;11304;53.520;10.104;2023-04-04T07:15:15;7.25;;;2.55;;
22270;SDS011;11304;53.520;10.104;2023-04-04T07:17:42;10.45;;;2.17;;
22270;SDS011;11304;53.520;10.104;2023-04-04T07:20:08;7.00;;;2.63;;
22270;SDS011;11304;53.520;10.104;2023-04-04T07:22:38;5.40;;;2.08;;
22270;SDS011;11304;53.520;10.104;2023-04-04T07:25:04;6.22;;;2.13;;
22270;SDS011;11304;53.520;10.104;2023-04-04T07:27:30;4.65;;;2.08;;
22270;SDS011;11304;53.520;10.104;2023-04-04T07:29:57;7.40;;;1.98;;
22270;SDS011;11304;53.520;10.104;2023-04-04T07:32:23;13.27;;;2.75;;
22270;SDS011;11304;53.520;10.104;2023-04-04T07:34:49;5.38;;;2.20;;
22270;SDS011;11304;53.520;10.104;2023-04-04T07:37:15;4.88;;;2.08;;
22270;SDS011;11304;53.520;10.104;2023-04-04T07:39:42;3.60;;;2.00;;
22270;SDS011;11304;53.520;10.104;2023-04-04T07:42:09;7.43;;;2.00;;
22270;SDS011;11304;53.520;10.104;2023-04-04T07:44:35;6.97;;;2.00;;
22270;SDS011;11304;53.520;10.104;2023-04-04T07:47:01;11.50;;;2.20;;
22270;SDS011;11304;53.520;10.104;2023-04-04T07:49:28;5.13;;;1.85;;
22270;SDS011;11304;53.520;10.104;2023-04-04T07:51:54;4.22;;;1.67;;
22270;SDS011;11304;53.520;10.104;2023-04-04T07:54:20;5.35;;;2.05;;
22270;SDS011;11304;53.520;10.104;2023-04-04T07:56:48;3.53;;;1.50;;
22270;SDS011;11304;53.520;10.104;2023-04-04T07:59:15;4.38;;;1.40;;
22270;SDS011;11304;53.520;10.104;2023-04-04T08:01:41;6.35;;;1.70;;
22270;SDS011;11304;53.520;10.104;2023-04-04T08:04:07;3.55;;;1.65;;
22270;SDS011;11304;53.520;10.104;2023-04-04T08:06:33;4.30;;;1.45;;
22270;SDS011;11304;53.520;10.104;2023-04-04T08:09:00;4.22;;;1.85;;
22270;SDS011;11304;53.520;10.104;2023-04-04T08:11:27;7.72;;;1.88;;
22270;SDS011;11304;53.520;10.104;2023-04-04T08:13:53;4.53;;;1.60;;
22270;SDS011;11304;53.520;10.104;2023-04-04T08:16:19;4.43;;;1.50;;
22270;SDS011;11304;53.520;10.104;2023-04-04T08:18:46;4.60;;;1.58;;
22270;SDS011;11304;53.520;10.104;2023-04-04T08:21:12;6.28;;;1.35;;
22270;SDS011;11304;53.520;10.104;2023-04-04T08:23:38;5.55;;;1.33;;
22270;SDS011;11304;53.520;10.104;2023-04-04T08:26:05;2.20;;;1.30;;
22270;SDS011;11304;53.520;10.104;2023-04-04T08:28:31;2.92;;;1.45;;
22270;SDS011;11304;53.520;10.104;2023-04-04T08:30:57;4.55;;;1.38;;
22270;SDS011;11304;53.520;10.104;2023-04-04T08:33:23;4.45;;;1.42;;
22270;SDS011;11304;53.520;10.104;2023-04-04T08:35:49;5.32;;;1.55;;
22270;SDS011;11304;53.520;10.104;2023-04-04T08:38:15;3.60;;;1.40;;
22270;SDS011;11304;53.520;10.104;2023-04-04T08:40:44;4.30;;;1.60;;
22270;SDS011;11304;53.520;10.104;2023-04-04T08:43:10;5.82;;;1.30;;
22270;SDS011;11304;53.520;10.104;2023-04-04T08:45:37;4.93;;;1.42;;
22270;SDS011;11304;53.520;10.104;2023-04-04T08:48:05;7.15;;;1.50;;
22270;SDS011;11304;53.520;10.104;2023-04-04T08:50:32;5.75;;;1.80;;
22270;SDS011;11304;53.520;10.104;2023-04-04T08:53:00;3.20;;;1.23;;
22270;SDS011;11304;53.520;10.104;2023-04-04T08:55:28;8.77;;;1.55;;
22270;SDS011;11304;53.520;10.104;2023-04-04T08:57:54;3.53;;;1.33;;
22270;SDS011;11304;53.520;10.104;2023-04-04T09:00:21;9.75;;;1.60;;
22270;SDS011;11304;53.520;10.104;2023-04-04T09:03:09;7.97;;;1.63;;
22270;SDS011;11304;53.520;10.104;2023-04-04T09:05:33;6.15;;;1.52;;
22270;SDS011;11304;53.520;10.104;2023-04-04T09:08:00;2.78;;;1.17;;
22270;SDS011;11304;53.520;10.104;2023-04-04T09:10:27;6.63;;;1.52;;
22270;SDS011;11304;53.520;10.104;2023-04-04T09:12:54;6.53;;;1.77;;
22270;SDS011;11304;53.520;10.104;2023-04-04T09:15:21;5.90;;;1.25;;
22270;SDS011;11304;53.520;10.104;2023-04-04T09:17:47;5.95;;;1.75;;
22270;SDS011;11304;53.520;10.104;2023-04-04T09:20:33;4.93;;;1.20;;
22270;SDS011;11304;53.520;10.104;2023-04-04T09:23:06;3.65;;;1.55;;
22270;SDS011;11304;53.520;10.104;2023-04-04T09:25:33;5.07;;;1.40;;
22270;SDS011;11304;53.520;10.104;2023-04-04T09:28:00;4.63;;;1.45;;
22270;SDS011;11304;53.520;10.104;2023-04-04T09:30:29;5.00;;;1.50;;
22270;SDS011;11304;53.520;10.104;2023-04-04T09:32:55;3.55;;;1.75;;
22270;SDS011;11304;53.520;10.104;2023-04-04T09:35:21;4.60;;;1.42;;
22270;SDS011;11304;53.520;10.104;2023-04-04T09:37:47;5.13;;;1.65;;
22270;SDS011;11304;53.520;10.104;2023-04-04T09:40:16;6.55;;;1.55;;
22270;SDS011;11304;53.520;10.104;2023-04-04T09:42:42;4.57;;;1.58;;
22270;SDS011;11304;53.520;10.104;2023-04-04T09:45:08;4.95;;;1.63;;
22270;SDS011;11304;53.520;10.104;2023-04-04T09:47:38;4.18;;;1.63;;
22270;SDS011;11304;53.520;10.104;2023-04-04T09:50:08;2.53;;;1.13;;
22270;SDS011;11304;53.520;10.104;2023-04-04T09:52:34;3.67;;;1.45;;
22270;SDS011;11304;53.520;10.104;2023-04-04T09:55:02;4.38;;;1.42;;
22270;SDS011;11304;53.520;10.104;2023-04-04T09:57:28;4.50;;;1.52;;
22270;SDS011;11304;53.520;10.104;2023-04-04T09:59:58;2.55;;;1.35;;
22270;SDS011;11304;53.520;10.104;2023-04-04T10:02:25;3.40;;;1.50;;
22270;SDS011;11304;53.520;10.104;2023-04-04T10:04:54;3.03;;;1.30;;
22270;SDS011;11304;53.520;10.104;2023-04-04T10:07:30;10.35;;;1.83;;
22270;SDS011;11304;53.520;10.104;2023-04-04T10:09:59;11.05;;;1.75;;
22270;SDS011;11304;53.520;10.104;2023-04-04T10:14:58;6.78;;;1.20;;
22270;SDS011;11304;53.520;10.104;2023-04-04T10:17:38;7.55;;;1.23;;
22270;SDS011;11304;53.520;10.104;2023-04-04T10:20:06;4.88;;;1.45;;
22270;SDS011;11304;53.520;10.104;2023-04-04T10:22:33;7.43;;;1.05;;
22270;SDS011;11304;53.520;10.104;2023-04-04T10:25:00;4.43;;;1.35;;
22270;SDS011;11304;53.520;10.104;2023-04-04T10:27:26;3.30;;;1.25;;
22270;SDS011;11304;53.520;10.104;2023-04-04T10:29:52;3.75;;;1.05;;
22270;SDS011;11304;53.520;10.104;2023-04-04T10:32:23;3.00;;;1.30;;
22270;SDS011;11304;53.520;10.104;2023-04-04T10:37:26;3.95;;;1.27;;
22270;SDS011;11304;53.520;10.104;2023-04-04T10:40:09;4.50;;;1.00;;
22270;SDS011;11304;53.520;10.104;2023-04-04T10:42:40;6.18;;;1.77;;
22270;SDS011;11304;53.520;10.104;2023-04-04T10:45:07;3.63;;;1.20;;
22270;SDS011;11304;53.520;10.104;2023-04-04T10:47:36;4.38;;;1.42;;
22270;SDS011;11304;53.520;10.104;2023-04-04T10:50:04;2.80;;;1.27;;
22270;SDS011;11304;53.520;10.104;2023-04-04T10:52:31;10.00;;;1.40;;
22270;SDS011;11304;53.520;10.104;2023-04-04T10:55:02;2.90;;;1.00;;
22270;SDS011;11304;53.520;10.104;2023-04-04T10:57:30;2.95;;;1.20;;
22270;SDS011;11304;53.520;10.104;2023-04-04T11:00:01;3.20;;;1.13;;
22270;SDS011;11304;53.520;10.104;2023-04-04T11:07:43;6.45;;;1.10;;
22270;SDS011;11304;53.520;10.104;2023-04-04T11:10:20;3.15;;;0.90;;
22270;SDS011;11304;53.520;10.104;2023-04-04T11:12:50;3.35;;;0.93;;
22270;SDS011;11304;53.520;10.104;2023-04-04T11:15:19;3.30;;;0.85;;
22270;SDS011;11304;53.520;10.104;2023-04-04T11:20:17;6.70;;;1.20;;
22270;SDS011;11304;53.520;10.104;2023-04-04T11:22:45;3.50;;;1.13;;
22270;SDS011;11304;53.520;10.104;2023-04-04T11:27:49;3.22;;;1.08;;
22270;SDS011;11304;53.520;10.104;2023-04-04T11:30:18;3.65;;;0.90;;
22270;SDS011;11304;53.520;10.104;2023-04-04T11:32:48;2.45;;;1.05;;
22270;SDS011;11304;53.520;10.104;2023-04-04T11:35:14;9.98;;;1.42;;
22270;SDS011;11304;53.520;10.104;2023-04-04T11:40:19;3.38;;;1.20;;
22270;SDS011;11304;53.520;10.104;2023-04-04T11:42:49;2.97;;;1.00;;
22270;SDS011;11304;53.520;10.104;2023-04-04T11:45:19;2.17;;;1.00;;
22270;SDS011;11304;53.520;10.104;2023-04-04T11:50:12;3.10;;;0.75;;
22270;SDS011;11304;53.520;10.104;2023-04-04T11:52:40;2.03;;;0.60;;
22270;SDS011;11304;53.520;10.104;2023-04-04T11:55:19;4.43;;;1.00;;
22270;SDS011;11304;53.520;10.104;2023-04-04T11:57:50;1.35;;;0.68;;
22270;SDS011;11304;53.520;10.104;2023-04-04T12:00:28;3.53;;;1.02;;
22270;SDS011;11304;53.520;10.104;2023-04-04T12:02:54;5.78;;;1.58;;
22270;SDS011;11304;53.520;10.104;2023-04-04T12:05:21;7.07;;;1.42;;
22270;SDS011;11304;53.520;10.104;2023-04-04T12:07:48;3.70;;;1.15;;
22270;SDS011;11304;53.520;10.104;2023-04-04T12:10:16;4.75;;;1.10;;
22270;SDS011;11304;53.520;10.104;2023-04-04T12:12:43;4.35;;;1.30;;
22270;SDS011;11304;53.520;10.104;2023-04-04T12:15:12;6.93;;;1.40;;
22270;SDS011;11304;53.520;10.104;2023-04-04T12:17:42;4.60;;;1.45;;
22270;SDS011;11304;53.520;10.104;2023-04-04T12:20:09;3.40;;;1.10;;
22270;SDS011;11304;53.520;10.104;2023-04-04T12:22:37;6.20;;;1.40;;
22270;SDS011;11304;53.520;10.104;2023-04-04T12:25:03;4.32;;;1.38;;
22270;SDS011;11304;53.520;10.104;2023-04-04T12:27:30;2.65;;;1.23;;
22270;SDS011;11304;53.520;10.104;2023-04-04T12:29:57;3.30;;;1.23;;
22270;SDS011;11304;53.520;10.104;2023-04-04T12:32:24;2.25;;;1.17;;
22270;SDS011;11304;53.520;10.104;2023-04-04T12:34:51;3.90;;;1.20;;
22270;SDS011;11304;53.520;10.104;2023-04-04T12:37:19;3.80;;;1.30;;
22270;SDS011;11304;53.520;10.104;2023-04-04T12:39:47;3.03;;;1.42;;
22270;SDS011;11304;53.520;10.104;2023-04-04T12:42:19;2.15;;;1.23;;
22270;SDS011;11304;53.520;10.104;2023-04-04T12:44:46;5.10;;;1.40;;
22270;SDS011;11304;53.520;10.104;2023-04-04T12:47:14;4.78;;;1.20;;
22270;SDS011;11304;53.520;10.104;2023-04-04T12:49:42;3.58;;;1.45;;
22270;SDS011;11304;53.520;10.104;2023-04-04T12:52:16;3.47;;;1.52;;
22270;SDS011;11304;53.520;10.104;2023-04-04T12:54:42;3.58;;;1.60;;
22270;SDS011;11304;53.520;10.104;2023-04-04T12:57:08;2.88;;;1.40;;
22270;SDS011;11304;53.520;10.104;2023-04-04T12:59:36;5.55;;;1.58;;
22270;SDS011;11304;53.520;10.104;2023-04-04T13:02:07;2.03;;;1.13;;
22270;SDS011;11304;53.520;10.104;2023-04-04T13:04:34;3.90;;;1.30;;
22270;SDS011;11304;53.520;10.104;2023-04-04T13:07:00;2.75;;;1.38;;
22270;SDS011;11304;53.520;10.104;2023-04-04T13:09:27;3.40;;;1.48;;
22270;SDS011;11304;53.520;10.104;2023-04-04T13:12:00;2.20;;;1.17;;
22270;SDS011;11304;53.520;10.104;2023-04-04T13:15:11;5.22;;;1.40;;
22270;SDS011;11304;53.520;10.104;2023-04-04T13:17:12;3.75;;;1.50;;
22270;SDS011;11304;53.520;10.104;2023-04-04T13:19:39;3.55;;;1.05;;
22270;SDS011;11304;53.520;10.104;2023-04-04T13:22:06;5.75;;;1.40;;
22270;SDS011;11304;53.520;10.104;2023-04-04T13:24:33;7.22;;;1.70;;
22270;SDS011;11304;53.520;10.104;2023-04-04T13:26:59;4.55;;;1.50;;
22270;SDS011;11304;53.520;10.104;2023-04-04T13:29:25;5.47;;;1.63;;
22270;SDS011;11304;53.520;10.104;2023-04-04T13:31:52;3.13;;;1.20;;
22270;SDS011;11304;53.520;10.104;2023-04-04T13:34:20;4.82;;;1.50;;
22270;SDS011;11304;53.520;10.104;2023-04-04T13:36:47;3.00;;;1.48;;
22270;SDS011;11304;53.520;10.104;2023-04-04T13:39:13;3.47;;;1.30;;
22270;SDS011;11304;53.520;10.104;2023-04-04T13:41:39;7.35;;;1.60;;
22270;SDS011;11304;53.520;10.104;2023-04-04T13:44:05;5.38;;;1.60;;
22270;SDS011;11304;53.520;10.104;2023-04-04T13:46:31;4.13;;;1.30;;
22270;SDS011;11304;53.520;10.104;2023-04-04T13:48:57;4.03;;;1.27;;
22270;SDS011;11304;53.520;10.104;2023-04-04T13:51:23;3.30;;;1.45;;
22270;SDS011;11304;53.520;10.104;2023-04-04T13:53:50;2.00;;;1.25;;
22270;SDS011;11304;53.520;10.104;2023-04-04T13:56:16;3.13;;;1.48;;
22270;SDS011;11304;53.520;10.104;2023-04-04T13:58:43;3.35;;;1.45;;
22270;SDS011;11304;53.520;10.104;2023-04-04T14:01:09;3.10;;;1.38;;
22270;SDS011;11304;53.520;10.104;2023-04-04T14:03:35;6.22;;;1.35;;
22270;SDS011;11304;53.520;10.104;2023-04-04T14:06:01;4.32;;;1.23;;
22270;SDS011;11304;53.520;10.104;2023-04-04T14:08:28;4.35;;;1.38;;
22270;SDS011;11304;53.520;10.104;2023-04-04T14:10:54;2.38;;;0.95;;
22270;SDS011;11304;53.520;10.104;2023-04-04T14:13:20;3.83;;;1.20;;
22270;SDS011;11304;53.520;10.104;2023-04-04T14:15:46;4.95;;;1.83;;
22270;SDS011;11304;53.520;10.104;2023-04-04T14:18:14;2.45;;;1.30;;
22270;SDS011;11304;53.520;10.104;2023-04-04T14:20:40;5.10;;;1.05;;
22270;SDS011;11304;53.520;10.104;2023-04-04T14:23:06;8.88;;;1.58;;
22270;SDS011;11304;53.520;10.104;2023-04-04T14:25:33;6.20;;;1.65;;
22270;SDS011;11304;53.520;10.104;2023-04-04T14:27:59;6.20;;;1.50;;
22270;SDS011;11304;53.520;10.104;2023-04-04T14:30:25;3.40;;;1.48;;
22270;SDS011;11304;53.520;10.104;2023-04-04T14:32:52;11.80;;;1.83;;
22270;SDS011;11304;53.520;10.104;2023-04-04T14:35:18;8.30;;;1.52;;
22270;SDS011;11304;53.520;10.104;2023-04-04T14:37:45;10.65;;;1.40;;
22270;SDS011;11304;53.520;10.104;2023-04-04T14:40:11;5.22;;;1.60;;
22270;SDS011;11304;53.520;10.104;2023-04-04T14:42:38;3.70;;;1.17;;
22270;SDS011;11304;53.520;10.104;2023-04-04T14:45:04;9.35;;;1.35;;
22270;SDS011;11304;53.520;10.104;2023-04-04T14:47:34;12.57;;;1.92;;
22270;SDS011;11304;53.520;10.104;2023-04-04T14:50:00;20.40;;;1.75;;
22270;SDS011;11304;53.520;10.104;2023-04-04T14:52:26;7.80;;;1.80;;
22270;SDS011;11304;53.520;10.104;2023-04-04T14:54:55;11.82;;;1.60;;
22270;SDS011;11304;53.520;10.104;2023-04-04T14:57:22;3.90;;;1.30;;
22270;SDS011;11304;53.520;10.104;2023-04-04T14:59:48;8.93;;;1.67;;
22270;SDS011;11304;53.520;10.104;2023-04-04T15:02:14;3.75;;;1.35;;
22270;SDS011;11304;53.520;10.104;2023-04-04T15:04:40;4.07;;;0.90;;